createdAt,value
2018-07-16T00:03:21.994Z,58.99
2018-07-16T00:05:51.084Z,59.01
2018-07-16T00:08:17.664Z,59.59
2018-07-16T00:10:46.378Z,61.11
2018-07-16T00:13:21.380Z,59.17
2018-07-16T00:15:47.647Z,58.03
2018-07-16T00:18:15.235Z,59.60
2018-07-16T00:20:42.746Z,60.35
2018-07-16T00:23:11.997Z,59.65
2018-07-16T00:25:38.330Z,60.05
2018-07-16T00:28:05.536Z,59.48
2018-07-16T00:30:34.502Z,59.80
2018-07-16T00:33:01.734Z,60.49
2018-07-16T00:35:32.843Z,59.06
2018-07-16T00:38:00.302Z,60.41
2018-07-16T00:40:28.969Z,60.91
2018-07-16T00:42:57.738Z,58.91
2018-07-16T00:45:25.290Z,57.55
2018-07-16T00:48:01.117Z,58.36
2018-07-16T00:50:27.791Z,59.23
2018-07-16T00:52:55.848Z,61.06
2018-07-16T00:55:22.157Z,61.26
2018-07-16T00:57:49.687Z,60.29
2018-07-16T01:00:19.509Z,60.57
2018-07-16T01:02:50.720Z,61.00
2018-07-16T01:05:17.043Z,59.83
2018-07-16T01:07:45.931Z,60.78
2018-07-16T01:10:13.875Z,61.90
2018-07-16T01:12:40.120Z,61.30
2018-07-16T01:15:07.409Z,62.36
2018-07-16T01:17:34.602Z,64.13
2018-07-16T01:20:01.439Z,62.82
2018-07-16T01:22:28.932Z,61.89
2018-07-16T01:24:55.804Z,62.17
2018-07-16T01:27:22.798Z,63.17
2018-07-16T01:29:49.929Z,61.90
2018-07-16T01:32:19.279Z,60.19
2018-07-16T01:34:46.427Z,61.36
2018-07-16T01:37:16.304Z,63.21
2018-07-16T01:39:49.500Z,63.78
2018-07-16T01:42:16.330Z,63.59
2018-07-16T01:44:42.546Z,62.66
2018-07-16T01:47:08.785Z,62.03
2018-07-16T01:49:35.020Z,62.99
2018-07-16T01:52:05.395Z,62.75
2018-07-16T01:54:32.277Z,62.61
2018-07-16T01:56:59.457Z,63.79
2018-07-16T01:59:25.808Z,63.90
2018-07-16T02:01:53.035Z,64.61
2018-07-16T02:04:19.184Z,65.72
2018-07-16T02:06:45.977Z,64.05
2018-07-16T02:09:12.240Z,64.34
2018-07-16T02:11:38.644Z,64.56
2018-07-16T02:14:05.911Z,63.62
2018-07-16T02:16:35.568Z,64.59
2018-07-16T02:19:02.849Z,66.09
2018-07-16T02:21:29.389Z,66.52
2018-07-16T02:23:58.195Z,65.47
2018-07-16T02:26:25.236Z,64.30
2018-07-16T02:28:51.776Z,64.99
2018-07-16T02:31:21.098Z,64.55
2018-07-16T02:33:47.377Z,63.73
2018-07-16T02:36:13.611Z,64.24
2018-07-16T02:38:39.759Z,64.22
2018-07-16T02:41:06.674Z,64.41
2018-07-16T02:43:32.919Z,64.31
2018-07-16T02:46:01.196Z,63.91
2018-07-16T02:48:28.511Z,64.45
2018-07-16T02:50:54.672Z,65.68
2018-07-16T02:53:21.682Z,66.83
2018-07-16T02:55:51.536Z,67.22
2018-07-16T02:58:18.643Z,65.83
2018-07-16T03:00:47.822Z,66.81
2018-07-16T03:03:14.419Z,67.01
2018-07-16T03:05:42.076Z,66.45
2018-07-16T03:08:10.054Z,65.61
2018-07-16T03:10:37.178Z,66.34
2018-07-16T03:13:04.462Z,67.42
2018-07-16T03:15:31.818Z,67.63
2018-07-16T03:17:58.206Z,66.01
2018-07-16T03:20:25.901Z,65.05
2018-07-16T03:22:52.319Z,64.15
2018-07-16T03:25:20.540Z,66.49
2018-07-16T03:27:51.415Z,66.45
2018-07-16T03:30:24.540Z,64.34
2018-07-16T03:32:54.615Z,63.38
2018-07-16T03:35:23.144Z,64.72
2018-07-16T03:37:52.178Z,62.84
2018-07-16T03:40:19.262Z,63.41
2018-07-16T03:45:32.110Z,64.41
2018-07-16T03:50:29.958Z,66.17
2018-07-16T03:52:58.341Z,66.49
2018-07-16T03:58:01.433Z,64.22
2018-07-16T04:00:32.383Z,63.02
2018-07-16T04:03:01.218Z,63.14
2018-07-16T04:05:29.144Z,63.47
2018-07-16T04:07:57.214Z,62.87
2018-07-16T04:10:24.300Z,64.68
2018-07-16T04:12:51.663Z,64.80
2018-07-16T04:15:20.832Z,64.12
2018-07-16T04:17:49.946Z,64.40
2018-07-16T04:20:16.272Z,63.75
2018-07-16T04:22:45.112Z,64.87
2018-07-16T04:25:13.184Z,65.86
2018-07-16T04:27:44.560Z,65.57
2018-07-16T04:30:11.556Z,65.37
2018-07-16T04:32:42.004Z,65.67
2018-07-16T04:35:09.441Z,65.43
2018-07-16T04:37:36.610Z,64.03
2018-07-16T04:40:03.428Z,63.60
2018-07-16T04:47:37.098Z,59.23
2018-07-16T04:50:03.518Z,57.92
2018-07-16T04:52:30.674Z,56.77
2018-07-16T04:54:56.949Z,57.90
2018-07-16T05:00:42.383Z,55.23
2018-07-16T05:03:08.540Z,54.61
2018-07-16T05:05:35.837Z,55.23
2018-07-16T05:08:04.505Z,55.38
2018-07-16T05:10:31.345Z,53.84
2018-07-16T05:12:58.725Z,53.96
2018-07-16T05:15:25.873Z,53.39
2018-07-16T05:17:52.104Z,53.98
2018-07-16T05:20:18.440Z,53.74
2018-07-16T05:22:45.824Z,52.61
2018-07-16T05:25:14.598Z,51.68
2018-07-16T05:27:46.436Z,50.86
2018-07-16T05:30:14.751Z,50.43
2018-07-16T05:32:43.399Z,50.65
2018-07-16T05:35:09.995Z,49.63
2018-07-16T05:37:37.110Z,48.88
2018-07-16T05:40:08.964Z,50.43
2018-07-16T05:42:35.906Z,48.78
2018-07-16T05:45:03.449Z,49.32
2018-07-16T05:47:32.440Z,47.81
2018-07-16T05:49:58.820Z,47.41
2018-07-16T05:52:25.060Z,46.94
2018-07-16T05:54:53.272Z,46.88
2018-07-16T05:59:55.681Z,46.51
2018-07-16T06:02:24.127Z,46.87
2018-07-16T06:04:51.530Z,46.87
2018-07-16T06:07:17.722Z,46.51
2018-07-16T06:09:43.778Z,44.61
2018-07-16T06:12:09.850Z,45.27
2018-07-16T06:14:35.964Z,44.49
2018-07-16T06:17:01.950Z,44.37
2018-07-16T06:19:27.958Z,44.21
2018-07-16T06:21:53.998Z,43.52
2018-07-16T06:24:20.109Z,43.60
2018-07-16T06:26:46.145Z,43.06
2018-07-16T06:29:12.117Z,41.97
2018-07-16T06:31:38.115Z,42.39
2018-07-16T06:46:41.472Z,38.46
2018-07-16T06:49:09.831Z,37.83
2018-07-16T06:51:37.961Z,37.78
2018-07-16T06:54:13.765Z,37.84
2018-07-16T06:56:42.264Z,36.95
2018-07-16T06:59:08.425Z,36.40
2018-07-16T07:01:39.145Z,36.67
2018-07-16T07:04:07.446Z,36.40
2018-07-16T07:06:33.471Z,35.13
2018-07-16T07:08:59.621Z,33.34
2018-07-16T07:11:25.759Z,33.58
2018-07-16T07:13:51.760Z,32.83
2018-07-16T07:16:17.747Z,32.70
2018-07-16T07:18:43.763Z,30.95
2018-07-16T07:21:11.849Z,30.80
2018-07-16T07:23:37.853Z,31.02
2018-07-16T07:26:03.857Z,30.45
2018-07-16T07:28:30.698Z,35.13
2018-07-16T07:30:56.666Z,37.79
2018-07-16T07:33:24.152Z,39.05
2018-07-16T07:35:53.340Z,39.06
2018-07-16T07:38:19.444Z,39.21
2018-07-16T07:40:45.555Z,39.22
2018-07-16T07:43:11.653Z,39.64
2018-07-16T07:45:37.699Z,39.57
2018-07-16T07:50:38.738Z,38.62
2018-07-16T07:53:05.048Z,38.94
2018-07-16T07:55:31.208Z,39.51
2018-07-16T07:57:57.319Z,39.12
2018-07-16T08:00:23.334Z,38.33
2018-07-16T08:02:49.434Z,38.74
2018-07-16T08:05:15.567Z,38.57
2018-07-16T08:07:41.645Z,37.83
2018-07-16T08:10:08.698Z,37.39
2018-07-16T08:12:35.533Z,36.85
2018-07-16T08:15:01.589Z,36.63
2018-07-16T08:17:28.466Z,35.48
2018-07-16T08:19:54.451Z,32.15
2018-07-16T08:22:20.500Z,31.33
2018-07-16T08:24:46.497Z,28.43
2018-07-16T08:27:12.452Z,28.50
2018-07-16T08:29:38.454Z,28.82
2018-07-16T08:32:05.537Z,29.34
2018-07-16T08:34:31.525Z,30.77
2018-07-16T08:36:57.498Z,34.75
2018-07-16T08:39:23.503Z,38.03
2018-07-16T08:41:49.475Z,39.81
2018-07-16T08:44:15.453Z,40.18
2018-07-16T08:46:41.431Z,39.35
2018-07-16T08:49:07.386Z,39.90
2018-07-16T08:51:33.351Z,40.75
2018-07-16T08:53:59.283Z,40.72
2018-07-16T08:56:25.252Z,40.41
2018-07-16T08:58:51.274Z,39.87
2018-07-16T09:01:17.307Z,41.68
2018-07-16T09:03:43.502Z,41.59
2018-07-16T09:06:09.493Z,41.05
2018-07-16T09:08:35.573Z,40.18
2018-07-16T09:11:01.656Z,41.49
2018-07-16T09:13:27.693Z,40.22
2018-07-16T09:15:53.580Z,39.99
2018-07-16T09:18:20.664Z,39.40
2018-07-16T09:20:46.629Z,40.93
2018-07-16T09:23:12.769Z,40.48
2018-07-16T09:25:38.815Z,41.72
2018-07-16T09:28:04.699Z,41.68
2018-07-16T09:30:30.647Z,41.66
2018-07-16T09:32:56.600Z,39.99
2018-07-16T09:35:22.579Z,39.44
2018-07-16T09:37:48.548Z,39.47
2018-07-16T09:40:14.487Z,39.16
2018-07-16T09:42:40.461Z,38.94
2018-07-16T09:45:06.430Z,40.76
2018-07-16T09:47:32.461Z,41.42
2018-07-16T09:49:58.445Z,41.13
2018-07-16T09:52:24.437Z,41.27
2018-07-16T09:54:50.412Z,41.84
2018-07-16T09:57:16.377Z,42.20
2018-07-16T09:59:42.368Z,41.98
2018-07-16T10:02:08.364Z,41.48
2018-07-16T10:04:34.349Z,41.27
2018-07-16T10:07:00.325Z,41.60
2018-07-16T10:09:26.318Z,41.92
2018-07-16T10:11:52.276Z,42.31
2018-07-16T10:14:18.401Z,42.45
2018-07-16T10:16:44.373Z,42.46
2018-07-16T10:19:11.266Z,40.05
2018-07-16T10:21:37.302Z,40.11
2018-07-16T10:24:03.354Z,41.21
2018-07-16T10:26:29.343Z,41.26
2018-07-16T10:28:55.350Z,40.40
2018-07-16T10:31:21.308Z,40.43
2018-07-16T10:33:47.285Z,41.01
2018-07-16T10:36:13.261Z,40.97
2018-07-16T10:38:39.268Z,40.87
2018-07-16T10:41:05.223Z,40.03
2018-07-16T10:43:31.169Z,39.47
2018-07-16T10:45:57.113Z,40.85
2018-07-16T10:48:23.103Z,39.19
2018-07-16T10:50:49.101Z,39.05
2018-07-16T10:53:15.050Z,37.34
2018-07-16T10:55:41.016Z,38.21
2018-07-16T10:58:06.958Z,37.66
2018-07-16T11:00:32.932Z,39.86
2018-07-16T11:02:58.950Z,40.27
2018-07-16T11:05:24.955Z,39.63
2018-07-16T11:07:50.827Z,39.75
2018-07-16T11:10:16.795Z,40.46
2018-07-16T11:12:42.748Z,40.20
2018-07-16T11:15:08.738Z,39.11
2018-07-16T11:17:34.682Z,39.47
2018-07-16T11:20:00.693Z,39.42
2018-07-16T11:22:26.661Z,40.40
2018-07-16T11:24:52.647Z,39.20
2018-07-16T11:27:18.604Z,39.87
2018-07-16T11:29:44.632Z,39.18
2018-07-16T11:32:10.584Z,38.92
2018-07-16T11:34:36.568Z,39.20
2018-07-16T11:37:02.523Z,37.93
2018-07-16T11:39:28.577Z,38.96
2018-07-16T11:41:54.525Z,40.07
2018-07-16T11:44:20.461Z,39.94
2018-07-16T11:46:46.482Z,38.59
2018-07-16T11:49:12.546Z,39.21
2018-07-16T11:51:38.591Z,37.95
2018-07-16T11:54:04.720Z,39.75
2018-07-16T11:56:30.791Z,39.36
2018-07-16T11:58:56.753Z,39.68
2018-07-16T12:01:22.722Z,38.12
2018-07-16T12:03:48.669Z,38.23
2018-07-16T12:06:14.642Z,38.93
2018-07-16T12:08:40.607Z,39.69
2018-07-16T12:11:06.552Z,39.06
2018-07-16T12:13:32.550Z,36.89
2018-07-16T12:15:58.600Z,38.20
2018-07-16T12:18:24.570Z,39.69
2018-07-16T12:20:50.529Z,38.80
2018-07-16T12:23:16.581Z,38.26
2018-07-16T12:25:42.634Z,38.85
2018-07-16T12:28:08.629Z,38.45
2018-07-16T12:30:34.596Z,38.36
2018-07-16T12:33:00.574Z,39.53
2018-07-16T12:35:26.537Z,39.04
2018-07-16T12:37:52.505Z,39.56
2018-07-16T12:40:18.465Z,39.27
2018-07-16T12:42:44.416Z,39.02
2018-07-16T12:45:10.401Z,39.17
2018-07-16T12:47:36.396Z,38.53
2018-07-16T12:50:02.367Z,38.22
2018-07-16T12:52:28.375Z,38.47
2018-07-16T12:54:54.393Z,37.33
2018-07-16T12:57:20.374Z,36.70
2018-07-16T12:59:46.339Z,37.70
2018-07-16T13:02:12.356Z,38.85
2018-07-16T13:04:38.353Z,37.79
2018-07-16T13:07:04.341Z,38.77
2018-07-16T13:09:31.144Z,37.71
2018-07-16T13:11:57.138Z,38.22
2018-07-16T13:14:23.137Z,37.33
2018-07-16T13:16:49.172Z,37.48
2018-07-16T13:19:15.143Z,37.82
2018-07-16T13:21:41.184Z,37.84
2018-07-16T13:24:07.188Z,38.13
2018-07-16T13:26:33.199Z,37.74
2018-07-16T13:28:59.187Z,36.73
2018-07-16T13:31:25.211Z,36.00
2018-07-16T13:33:51.233Z,37.46
2018-07-16T13:36:17.240Z,36.10
2018-07-16T13:38:43.212Z,34.69
2018-07-16T13:41:09.191Z,34.32
2018-07-16T13:43:35.184Z,36.93
2018-07-16T13:46:01.199Z,35.64
2018-07-16T13:48:27.201Z,34.10
2018-07-16T13:50:53.157Z,33.89
2018-07-16T13:53:19.108Z,35.38
2018-07-16T13:55:45.064Z,35.83
2018-07-16T13:58:11.021Z,35.99
2018-07-16T14:00:37.079Z,36.26
2018-07-16T14:03:03.305Z,35.18
2018-07-16T14:05:29.301Z,36.98
2018-07-16T14:07:55.288Z,37.45
2018-07-16T14:10:21.288Z,37.29
2018-07-16T14:12:47.350Z,37.29
2018-07-16T14:15:13.328Z,34.27
2018-07-16T14:17:39.328Z,36.86
2018-07-16T14:20:05.324Z,36.72
2018-07-16T14:22:31.418Z,36.68
2018-07-16T14:24:57.357Z,37.21
2018-07-16T14:27:23.343Z,36.42
2018-07-16T14:29:49.322Z,37.56
2018-07-16T14:32:15.285Z,36.68
2018-07-16T14:34:41.241Z,36.69
2018-07-16T14:37:07.247Z,35.68
2018-07-16T14:39:33.300Z,36.77
2018-07-16T14:41:59.254Z,38.06
2018-07-16T14:44:25.228Z,36.97
2018-07-16T14:46:51.231Z,36.75
2018-07-16T14:49:17.191Z,36.98
2018-07-16T14:51:43.141Z,37.61
2018-07-16T14:54:11.397Z,38.23
2018-07-16T14:56:37.519Z,37.87
2018-07-16T14:59:03.546Z,38.29
2018-07-16T15:01:29.528Z,36.63
2018-07-16T15:03:55.607Z,37.78
2018-07-16T15:06:21.588Z,36.31
2018-07-16T15:08:47.596Z,36.10
2018-07-16T15:11:13.652Z,37.15
2018-07-16T15:13:39.632Z,37.86
2018-07-16T15:16:05.602Z,37.73
2018-07-16T15:18:31.589Z,36.99
2018-07-16T15:20:57.903Z,38.03
2018-07-16T15:23:23.653Z,38.00
2018-07-16T15:25:49.697Z,35.96
2018-07-16T15:28:15.671Z,37.58
2018-07-16T15:30:41.648Z,37.08
2018-07-16T15:33:07.634Z,36.42
2018-07-16T15:35:33.678Z,37.81
2018-07-16T15:37:59.656Z,36.12
2018-07-16T15:40:25.634Z,36.34
2018-07-16T15:42:51.601Z,36.12
2018-07-16T15:45:17.575Z,35.91
2018-07-16T15:47:43.545Z,36.10
2018-07-16T15:50:09.506Z,35.66
2018-07-16T15:52:35.560Z,37.19
2018-07-16T15:55:01.544Z,37.62
2018-07-16T15:57:27.503Z,38.08
2018-07-16T15:59:54.715Z,36.98
2018-07-16T16:02:20.724Z,37.01
2018-07-16T16:04:46.687Z,35.60
2018-07-16T16:07:12.751Z,35.95
2018-07-16T16:09:38.765Z,36.43
2018-07-16T16:12:04.819Z,35.91
2018-07-16T16:14:30.822Z,36.87
2018-07-16T16:16:56.802Z,36.32
2018-07-16T16:19:22.811Z,36.50
2018-07-16T16:21:48.821Z,35.78
2018-07-16T16:24:14.808Z,36.82
2018-07-16T16:26:40.801Z,36.87
2018-07-16T16:29:06.816Z,34.94
2018-07-16T16:31:32.784Z,34.60
2018-07-16T16:33:58.769Z,33.96
2018-07-16T16:36:24.764Z,35.40
2018-07-16T16:38:50.754Z,34.58
2018-07-16T16:41:16.741Z,34.45
2018-07-16T16:43:42.731Z,34.39
2018-07-16T16:46:08.773Z,33.88
2018-07-16T16:48:34.754Z,35.33
2018-07-16T16:51:00.785Z,34.95
2018-07-16T16:53:26.772Z,33.91
2018-07-16T16:55:52.748Z,34.54
2018-07-16T16:58:18.696Z,35.84
2018-07-16T17:00:44.673Z,35.69
2018-07-16T17:03:10.685Z,35.87
2018-07-16T17:05:36.738Z,36.38
2018-07-16T17:08:02.699Z,35.62
2018-07-16T17:10:28.915Z,35.17
2018-07-16T17:12:54.897Z,36.13
2018-07-16T17:15:20.905Z,36.43
2018-07-16T17:17:46.857Z,35.23
2018-07-16T17:20:12.901Z,36.05
2018-07-16T17:22:38.935Z,35.73
2018-07-16T17:25:05.128Z,35.03
2018-07-16T17:27:31.124Z,35.77
2018-07-16T17:29:57.903Z,34.14
2018-07-16T17:32:23.993Z,35.37
2018-07-16T17:34:50.097Z,34.87
2018-07-16T17:37:15.972Z,34.88
2018-07-16T17:39:42.076Z,34.54
2018-07-16T17:42:08.044Z,34.88
2018-07-16T17:44:34.772Z,34.70
2018-07-16T17:47:00.766Z,34.77
2018-07-16T17:49:26.847Z,34.03
2018-07-16T17:51:52.808Z,34.32
2018-07-16T17:54:18.842Z,34.41
2018-07-16T17:56:44.918Z,34.28
2018-07-16T17:59:10.884Z,34.94
2018-07-16T18:01:36.881Z,34.83
2018-07-16T18:04:02.836Z,34.55
2018-07-16T18:06:28.867Z,34.42
2018-07-16T18:08:54.849Z,35.17
2018-07-16T18:11:20.840Z,34.84
2018-07-16T18:13:46.875Z,34.55
2018-07-16T18:16:12.889Z,35.04
2018-07-16T18:18:38.921Z,35.51
2018-07-16T18:21:04.964Z,36.10
2018-07-16T18:23:30.943Z,35.11
2018-07-16T18:25:56.890Z,35.68
2018-07-16T18:28:22.900Z,35.60
2018-07-16T18:30:48.877Z,35.20
2018-07-16T18:33:14.929Z,35.73
2018-07-16T18:35:41.049Z,35.76
2018-07-16T18:38:07.032Z,35.62
2018-07-16T18:40:32.982Z,36.40
2018-07-16T18:42:58.920Z,36.02
2018-07-16T18:45:24.876Z,35.73
2018-07-16T18:47:51.039Z,37.09
2018-07-16T18:50:17.024Z,36.54
2018-07-16T18:52:43.000Z,37.60
2018-07-16T18:55:08.958Z,37.68
2018-07-16T18:57:34.970Z,38.07
2018-07-16T19:00:00.975Z,36.82
2018-07-16T19:02:26.957Z,39.03
2018-07-16T19:04:52.914Z,39.31
2018-07-16T19:07:18.901Z,38.43
2018-07-16T19:09:44.894Z,38.69
2018-07-16T19:12:10.860Z,37.69
2018-07-16T19:14:36.839Z,37.34
2018-07-16T19:17:02.790Z,38.18
2018-07-16T19:19:28.786Z,38.74
2018-07-16T19:21:54.750Z,39.40
2018-07-16T19:24:20.777Z,41.25
2018-07-16T19:26:46.736Z,40.81
2018-07-16T19:29:12.757Z,42.86
2018-07-16T19:31:38.779Z,42.04
2018-07-16T19:34:04.756Z,42.65
2018-07-16T19:36:30.737Z,42.43
2018-07-16T19:38:56.808Z,42.42
2018-07-16T19:41:22.774Z,43.65
2018-07-16T19:43:48.768Z,43.58
2018-07-16T19:46:14.744Z,43.93
2018-07-16T19:48:40.794Z,44.60
2018-07-16T19:51:06.798Z,44.95
2018-07-16T19:53:32.741Z,44.92
2018-07-16T19:55:58.720Z,44.06
2018-07-16T19:58:24.705Z,44.40
2018-07-16T20:00:50.709Z,44.17
2018-07-16T20:03:16.684Z,44.42
2018-07-16T20:05:42.695Z,44.97
2018-07-16T20:08:08.738Z,44.64
2018-07-16T20:10:34.711Z,45.86
2018-07-16T20:13:00.809Z,45.80
2018-07-16T20:15:26.845Z,46.15
2018-07-16T20:17:52.893Z,46.30
2018-07-16T20:20:19.037Z,46.31
2018-07-16T20:22:44.980Z,46.08
2018-07-16T20:25:11.022Z,45.74
2018-07-16T20:27:36.997Z,46.16
2018-07-16T20:30:02.970Z,45.73
2018-07-16T20:32:29.017Z,46.51
2018-07-16T20:34:55.017Z,46.25
2018-07-16T20:37:20.989Z,46.02
2018-07-16T20:39:46.957Z,46.37
2018-07-16T20:42:12.936Z,46.83
2018-07-16T20:44:38.896Z,46.51
2018-07-16T20:47:04.913Z,47.39
2018-07-16T20:49:30.883Z,47.37
2018-07-16T20:51:56.851Z,46.83
2018-07-16T20:54:22.876Z,47.14
2018-07-16T20:56:48.940Z,46.05
2018-07-16T20:59:14.922Z,45.77
2018-07-16T21:01:40.919Z,45.86
2018-07-16T21:04:06.882Z,45.77
2018-07-16T21:06:32.858Z,46.49
2018-07-16T21:08:58.821Z,46.60
2018-07-16T21:11:24.805Z,47.41
2018-07-16T21:13:50.867Z,47.27
2018-07-16T21:16:16.853Z,46.28
2018-07-16T21:18:42.800Z,46.29
2018-07-16T21:21:08.786Z,46.07
2018-07-16T21:23:34.731Z,46.48
2018-07-16T21:26:00.697Z,48.42
2018-07-16T21:28:26.643Z,48.50
2018-07-16T21:30:52.885Z,48.22
2018-07-16T21:33:18.830Z,48.95
2018-07-16T21:35:44.820Z,48.27
2018-07-16T21:38:10.759Z,47.96
2018-07-16T21:40:36.958Z,48.21
2018-07-16T21:43:02.781Z,47.59
2018-07-16T21:45:28.796Z,46.50
2018-07-16T21:47:54.786Z,47.47
2018-07-16T21:50:20.744Z,47.88
2018-07-16T21:52:46.747Z,47.52
2018-07-16T21:55:12.733Z,47.44
2018-07-16T21:57:38.726Z,47.74
2018-07-16T22:00:04.706Z,47.29
2018-07-16T22:02:30.681Z,47.28
2018-07-16T22:04:56.621Z,46.62
2018-07-16T22:07:22.596Z,47.59
2018-07-16T22:09:48.570Z,46.80
2018-07-16T22:12:14.543Z,47.57
2018-07-16T22:14:40.493Z,46.79
2018-07-16T22:17:06.454Z,47.33
2018-07-16T22:19:32.392Z,47.79
2018-07-16T22:21:58.335Z,47.79
2018-07-16T22:24:24.294Z,48.68
2018-07-16T22:26:50.248Z,49.14
2018-07-16T22:29:16.228Z,50.19
2018-07-16T22:31:42.222Z,49.83
2018-07-16T22:34:08.172Z,48.32
2018-07-16T22:36:34.131Z,48.72
2018-07-16T22:39:00.135Z,49.34
2018-07-16T22:41:26.119Z,48.61
2018-07-16T22:43:52.068Z,47.83
2018-07-16T22:46:18.008Z,48.53
2018-07-16T22:48:43.946Z,47.48
2018-07-16T22:51:09.917Z,48.94
2018-07-16T22:53:35.894Z,48.95
2018-07-16T22:56:01.907Z,49.77
2018-07-16T22:58:27.880Z,50.03
2018-07-16T23:00:53.814Z,51.32
2018-07-16T23:03:19.764Z,50.65
2018-07-16T23:05:45.734Z,51.61
2018-07-16T23:08:11.707Z,51.06
2018-07-16T23:10:37.644Z,50.63
2018-07-16T23:13:03.622Z,50.78
2018-07-16T23:15:29.584Z,51.91
2018-07-16T23:17:55.558Z,51.02
2018-07-16T23:20:21.493Z,51.32
2018-07-16T23:22:47.442Z,50.26
2018-07-16T23:25:13.394Z,50.31
2018-07-16T23:27:39.337Z,51.73
2018-07-16T23:30:05.290Z,51.64
2018-07-16T23:32:31.256Z,51.50
2018-07-16T23:34:57.215Z,51.09
2018-07-16T23:37:23.155Z,51.51
2018-07-16T23:39:49.105Z,51.31
2018-07-16T23:42:15.176Z,52.07
2018-07-16T23:44:41.159Z,51.67
2018-07-16T23:47:07.122Z,51.25
2018-07-16T23:49:33.097Z,51.01
2018-07-16T23:51:59.049Z,51.29
2018-07-16T23:54:25.057Z,50.57
2018-07-16T23:56:51.003Z,50.01
2018-07-16T23:59:16.959Z,51.33
